sensor_id;sensor_type;location;lat;lon;timestamp;pressure;altitude;pressure_sealevel;temperature;humidity
70968;BME280;58629;48.808;8.820;2023-02-07T00:00:04;98912.34;;;-0.45;94.37
70968;BME280;58629;48.808;8.820;2023-02-07T00:02:30;98919.13;;;-0.44;94.67
70968;BME280;58629;48.808;8.820;2023-02-07T00:04:56;98912.34;;;-0.45;94.52
70968;BME280;58629;48.808;8.820;2023-02-07T00:07:21;98911.38;;;-0.49;94.76
70968;BME280;58629;48.808;8.820;2023-02-07T00:09:46;98908.00;;;-0.49;93.86
70968;BME280;58629;48.808;8.820;2023-02-07T00:12:11;98910.63;;;-0.49;94.09
70968;BME280;58629;48.808;8.820;2023-02-07T00:14:37;98918.34;;;-0.58;95.02
70968;BME280;58629;48.808;8.820;2023-02-07T00:17:02;98908.91;;;-0.54;94.17
70968;BME280;58629;48.808;8.820;2023-02-07T00:19:27;98919.88;;;-0.57;94.67
70968;BME280;58629;48.808;8.820;2023-02-07T00:21:53;98922.78;;;-0.58;93.07
70968;BME280;58629;48.808;8.820;2023-02-07T00:24:18;98926.41;;;-0.59;92.86
70968;BME280;58629;48.808;8.820;2023-02-07T00:26:43;98921.63;;;-0.66;92.38
70968;BME280;58629;48.808;8.820;2023-02-07T00:29:11;98926.81;;;-0.66;92.04
70968;BME280;58629;48.808;8.820;2023-02-07T00:31:36;98917.56;;;-0.72;91.09
70968;BME280;58629;48.808;8.820;2023-02-07T00:34:04;98921.69;;;-0.71;91.01
70968;BME280;58629;48.808;8.820;2023-02-07T00:36:31;98919.41;;;-0.72;90.28
70968;BME280;58629;48.808;8.820;2023-02-07T00:38:58;98906.19;;;-0.90;88.65
70968;BME280;58629;48.808;8.820;2023-02-07T00:41:24;98908.31;;;-0.92;88.66
70968;BME280;58629;48.808;8.820;2023-02-07T00:43:50;98904.25;;;-0.98;88.02
70968;BME280;58629;48.808;8.820;2023-02-07T00:46:15;98892.91;;;-1.02;87.25
70968;BME280;58629;48.808;8.820;2023-02-07T00:48:41;98904.16;;;-1.06;87.48
70968;BME280;58629;48.808;8.820;2023-02-07T00:51:06;98907.91;;;-1.12;86.21
70968;BME280;58629;48.808;8.820;2023-02-07T00:53:32;98899.59;;;-1.14;86.64
70968;BME280;58629;48.808;8.820;2023-02-07T00:55:58;98909.34;;;-1.20;86.48
70968;BME280;58629;48.808;8.820;2023-02-07T00:58:24;98914.34;;;-1.23;86.69
70968;BME280;58629;48.808;8.820;2023-02-07T01:00:49;98921.91;;;-1.27;86.38
70968;BME280;58629;48.808;8.820;2023-02-07T01:03:15;98910.00;;;-1.28;86.68
70968;BME280;58629;48.808;8.820;2023-02-07T01:05:40;98904.59;;;-1.31;86.26
70968;BME280;58629;48.808;8.820;2023-02-07T01:08:06;98905.84;;;-1.29;87.12
70968;BME280;58629;48.808;8.820;2023-02-07T01:10:32;98896.22;;;-1.28;86.29
70968;BME280;58629;48.808;8.820;2023-02-07T01:12:57;98892.97;;;-1.20;85.69
70968;BME280;58629;48.808;8.820;2023-02-07T01:15:22;98896.50;;;-1.30;86.47
70968;BME280;58629;48.808;8.820;2023-02-07T01:17:48;98896.66;;;-1.40;86.57
70968;BME280;58629;48.808;8.820;2023-02-07T01:20:14;98891.28;;;-1.43;87.04
70968;BME280;58629;48.808;8.820;2023-02-07T01:22:39;98898.41;;;-1.49;86.93
70968;BME280;58629;48.808;8.820;2023-02-07T01:25:05;98902.38;;;-1.56;86.85
70968;BME280;58629;48.808;8.820;2023-02-07T01:27:33;98901.16;;;-1.59;86.57
70968;BME280;58629;48.808;8.820;2023-02-07T01:29:59;98900.72;;;-1.66;86.26
70968;BME280;58629;48.808;8.820;2023-02-07T01:32:24;98900.81;;;-1.71;86.15
70968;BME280;58629;48.808;8.820;2023-02-07T01:34:50;98898.56;;;-1.78;86.78
70968;BME280;58629;48.808;8.820;2023-02-07T01:37:15;98905.09;;;-1.80;86.15
70968;BME280;58629;48.808;8.820;2023-02-07T01:39:40;98915.84;;;-1.87;87.37
70968;BME280;58629;48.808;8.820;2023-02-07T01:42:12;98922.84;;;-1.87;87.05
70968;BME280;58629;48.808;8.820;2023-02-07T01:47:03;98946.16;;;-1.82;87.33
70968;BME280;58629;48.808;8.820;2023-02-07T01:49:32;98958.00;;;-1.76;87.67
70968;BME280;58629;48.808;8.820;2023-02-07T01:52:09;98953.88;;;-1.77;87.48
70968;BME280;58629;48.808;8.820;2023-02-07T01:54:35;98945.03;;;-1.76;87.17
70968;BME280;58629;48.808;8.820;2023-02-07T01:57:06;98940.41;;;-1.79;86.84
70968;BME280;58629;48.808;8.820;2023-02-07T01:59:34;98927.72;;;-1.81;86.80
70968;BME280;58629;48.808;8.820;2023-02-07T02:02:03;98926.78;;;-1.71;86.75
70968;BME280;58629;48.808;8.820;2023-02-07T02:04:30;98926.28;;;-1.73;86.71
70968;BME280;58629;48.808;8.820;2023-02-07T02:06:56;98920.47;;;-1.84;86.46
70968;BME280;58629;48.808;8.820;2023-02-07T02:09:22;98936.38;;;-1.90;86.79
70968;BME280;58629;48.808;8.820;2023-02-07T02:12:10;98932.41;;;-2.01;87.25
70968;BME280;58629;48.808;8.820;2023-02-07T02:14:52;98929.88;;;-2.06;87.54
70968;BME280;58629;48.808;8.820;2023-02-07T02:23:09;98932.47;;;-2.06;87.40
70968;BME280;58629;48.808;8.820;2023-02-07T02:36:44;98930.59;;;-2.01;87.65
70968;BME280;58629;48.808;8.820;2023-02-07T02:39:30;98921.81;;;-2.05;86.53
70968;BME280;58629;48.808;8.820;2023-02-07T02:42:06;98928.28;;;-2.02;87.39
70968;BME280;58629;48.808;8.820;2023-02-07T02:44:39;98914.81;;;-2.04;87.04
70968;BME280;58629;48.808;8.820;2023-02-07T02:47:07;98918.38;;;-2.00;87.57
70968;BME280;58629;48.808;8.820;2023-02-07T02:49:34;98915.84;;;-2.05;87.38
70968;BME280;58629;48.808;8.820;2023-02-07T02:52:01;98917.88;;;-2.02;87.16
70968;BME280;58629;48.808;8.820;2023-02-07T02:57:09;98916.13;;;-2.07;87.25
70968;BME280;58629;48.808;8.820;2023-02-07T03:02:48;98921.09;;;-2.10;87.60
70968;BME280;58629;48.808;8.820;2023-02-07T03:05:26;98914.69;;;-2.18;86.34
70968;BME280;58629;48.808;8.820;2023-02-07T03:08:14;98929.78;;;-2.20;86.86
70968;BME280;58629;48.808;8.820;2023-02-07T03:21:14;98946.03;;;-2.33;86.57
70968;BME280;58629;48.808;8.820;2023-02-07T03:23:42;98950.69;;;-2.30;86.48
70968;BME280;58629;48.808;8.820;2023-02-07T03:26:09;98948.91;;;-2.34;85.48
70968;BME280;58629;48.808;8.820;2023-02-07T03:28:34;98959.41;;;-2.44;86.27
70968;BME280;58629;48.808;8.820;2023-02-07T03:31:01;98950.81;;;-2.40;86.48
70968;BME280;58629;48.808;8.820;2023-02-07T03:33:29;98957.25;;;-2.37;86.74
70968;BME280;58629;48.808;8.820;2023-02-07T03:38:39;98960.63;;;-2.37;85.57
70968;BME280;58629;48.808;8.820;2023-02-07T03:41:09;98957.53;;;-2.39;86.16
70968;BME280;58629;48.808;8.820;2023-02-07T03:43:38;98966.59;;;-2.36;85.71
70968;BME280;58629;48.808;8.820;2023-02-07T03:46:07;98964.03;;;-2.41;85.58
70968;BME280;58629;48.808;8.820;2023-02-07T03:48:33;98962.78;;;-2.44;85.17
70968;BME280;58629;48.808;8.820;2023-02-07T03:50:58;98951.94;;;-2.51;85.34
70968;BME280;58629;48.808;8.820;2023-02-07T03:53:23;98951.63;;;-2.44;85.49
70968;BME280;58629;48.808;8.820;2023-02-07T03:55:49;98947.97;;;-2.43;85.41
70968;BME280;58629;48.808;8.820;2023-02-07T03:58:14;98945.81;;;-2.36;85.40
70968;BME280;58629;48.808;8.820;2023-02-07T04:00:39;98946.53;;;-2.31;84.87
70968;BME280;58629;48.808;8.820;2023-02-07T04:03:04;98945.22;;;-2.28;84.67
70968;BME280;58629;48.808;8.820;2023-02-07T04:05:30;98946.03;;;-2.33;84.09
70968;BME280;58629;48.808;8.820;2023-02-07T04:07:55;98937.84;;;-2.40;84.82
70968;BME280;58629;48.808;8.820;2023-02-07T04:10:21;98943.78;;;-2.39;84.96
70968;BME280;58629;48.808;8.820;2023-02-07T04:12:46;98938.94;;;-2.46;85.09
70968;BME280;58629;48.808;8.820;2023-02-07T04:15:12;98935.91;;;-2.53;85.53
70968;BME280;58629;48.808;8.820;2023-02-07T04:17:38;98934.19;;;-2.63;85.95
70968;BME280;58629;48.808;8.820;2023-02-07T04:20:04;98926.13;;;-2.61;85.44
70968;BME280;58629;48.808;8.820;2023-02-07T04:22:29;98920.72;;;-2.65;85.49
70968;BME280;58629;48.808;8.820;2023-02-07T04:24:55;98921.00;;;-2.66;85.91
70968;BME280;58629;48.808;8.820;2023-02-07T04:27:20;98922.34;;;-2.69;85.50
70968;BME280;58629;48.808;8.820;2023-02-07T04:29:45;98924.94;;;-2.69;85.55
70968;BME280;58629;48.808;8.820;2023-02-07T04:32:11;98922.66;;;-2.75;85.98
70968;BME280;58629;48.808;8.820;2023-02-07T04:34:36;98930.28;;;-2.84;86.05
70968;BME280;58629;48.808;8.820;2023-02-07T04:37:01;98936.78;;;-2.86;85.88
70968;BME280;58629;48.808;8.820;2023-02-07T04:39:26;98932.13;;;-2.89;85.20
70968;BME280;58629;48.808;8.820;2023-02-07T04:41:52;98924.84;;;-2.87;85.09
70968;BME280;58629;48.808;8.820;2023-02-07T04:44:17;98925.97;;;-2.93;85.04
70968;BME280;58629;48.808;8.820;2023-02-07T04:46:43;98927.78;;;-2.94;85.14
70968;BME280;58629;48.808;8.820;2023-02-07T04:49:08;98917.69;;;-2.95;85.53
70968;BME280;58629;48.808;8.820;2023-02-07T04:51:33;98920.03;;;-2.99;85.58
70968;BME280;58629;48.808;8.820;2023-02-07T04:53:59;98921.88;;;-2.99;85.35
70968;BME280;58629;48.808;8.820;2023-02-07T04:56:24;98926.78;;;-2.98;85.90
70968;BME280;58629;48.808;8.820;2023-02-07T04:58:50;98927.06;;;-2.99;85.51
70968;BME280;58629;48.808;8.820;2023-02-07T05:01:15;98930.16;;;-2.97;85.10
70968;BME280;58629;48.808;8.820;2023-02-07T05:03:40;98920.00;;;-2.94;85.13
70968;BME280;58629;48.808;8.820;2023-02-07T05:06:06;98918.13;;;-2.88;85.31
70968;BME280;58629;48.808;8.820;2023-02-07T05:08:31;98920.94;;;-2.85;85.46
70968;BME280;58629;48.808;8.820;2023-02-07T05:10:57;98918.13;;;-2.88;84.53
70968;BME280;58629;48.808;8.820;2023-02-07T05:13:23;98928.56;;;-2.93;84.66
70968;BME280;58629;48.808;8.820;2023-02-07T05:15:48;98928.00;;;-2.90;85.54
70968;BME280;58629;48.808;8.820;2023-02-07T05:18:14;98920.91;;;-3.03;84.72
70968;BME280;58629;48.808;8.820;2023-02-07T05:20:39;98922.66;;;-3.27;83.82
70968;BME280;58629;48.808;8.820;2023-02-07T05:23:04;98932.59;;;-3.39;84.31
70968;BME280;58629;48.808;8.820;2023-02-07T05:25:29;98930.88;;;-3.49;85.24
70968;BME280;58629;48.808;8.820;2023-02-07T05:27:55;98943.25;;;-3.41;85.47
70968;BME280;58629;48.808;8.820;2023-02-07T05:30:20;98955.22;;;-3.50;85.09
70968;BME280;58629;48.808;8.820;2023-02-07T05:32:46;98954.25;;;-3.59;84.74
70968;BME280;58629;48.808;8.820;2023-02-07T05:37:55;98944.53;;;-3.77;87.32
70968;BME280;58629;48.808;8.820;2023-02-07T05:40:20;98950.44;;;-3.67;86.86
70968;BME280;58629;48.808;8.820;2023-02-07T05:42:46;98943.38;;;-3.61;87.09
70968;BME280;58629;48.808;8.820;2023-02-07T05:45:11;98950.09;;;-3.55;86.69
70968;BME280;58629;48.808;8.820;2023-02-07T05:47:37;98959.09;;;-3.53;87.36
70968;BME280;58629;48.808;8.820;2023-02-07T05:50:02;98960.38;;;-3.50;87.19
70968;BME280;58629;48.808;8.820;2023-02-07T05:52:28;98951.84;;;-3.51;87.52
70968;BME280;58629;48.808;8.820;2023-02-07T05:54:53;98948.50;;;-3.51;87.75
70968;BME280;58629;48.808;8.820;2023-02-07T05:57:18;98945.94;;;-3.56;87.76
70968;BME280;58629;48.808;8.820;2023-02-07T05:59:43;98937.94;;;-3.60;88.19
70968;BME280;58629;48.808;8.820;2023-02-07T06:02:09;98943.13;;;-3.60;87.98
70968;BME280;58629;48.808;8.820;2023-02-07T06:04:34;98948.34;;;-3.65;89.13
70968;BME280;58629;48.808;8.820;2023-02-07T06:07:00;98951.16;;;-3.61;88.38
70968;BME280;58629;48.808;8.820;2023-02-07T06:09:25;98948.09;;;-3.68;88.57
70968;BME280;58629;48.808;8.820;2023-02-07T06:11:50;98947.84;;;-3.67;89.07
70968;BME280;58629;48.808;8.820;2023-02-07T06:14:16;98950.94;;;-3.65;89.48
70968;BME280;58629;48.808;8.820;2023-02-07T06:16:41;98944.69;;;-3.64;88.87
70968;BME280;58629;48.808;8.820;2023-02-07T06:19:06;98939.78;;;-3.65;89.16
70968;BME280;58629;48.808;8.820;2023-02-07T06:21:32;98931.53;;;-3.72;88.50
70968;BME280;58629;48.808;8.820;2023-02-07T06:23:57;98922.75;;;-3.71;89.39
70968;BME280;58629;48.808;8.820;2023-02-07T06:26:22;98928.72;;;-3.71;89.30
70968;BME280;58629;48.808;8.820;2023-02-07T06:28:48;98930.03;;;-3.78;89.13
70968;BME280;58629;48.808;8.820;2023-02-07T06:31:13;98933.97;;;-3.86;88.18
70968;BME280;58629;48.808;8.820;2023-02-07T06:33:38;98944.81;;;-3.79;88.82
70968;BME280;58629;48.808;8.820;2023-02-07T06:36:04;98942.22;;;-3.84;88.06
70968;BME280;58629;48.808;8.820;2023-02-07T06:38:29;98944.34;;;-3.91;87.46
70968;BME280;58629;48.808;8.820;2023-02-07T06:40:54;98939.47;;;-3.92;88.65
70968;BME280;58629;48.808;8.820;2023-02-07T06:43:20;98943.81;;;-3.88;89.09
70968;BME280;58629;48.808;8.820;2023-02-07T06:45:45;98953.13;;;-3.87;89.19
70968;BME280;58629;48.808;8.820;2023-02-07T06:48:10;98952.63;;;-3.89;89.02
70968;BME280;58629;48.808;8.820;2023-02-07T06:50:36;98947.72;;;-3.90;88.67
70968;BME280;58629;48.808;8.820;2023-02-07T06:53:01;98951.56;;;-3.88;89.61
70968;BME280;58629;48.808;8.820;2023-02-07T06:55:34;98951.31;;;-3.86;89.72
70968;BME280;58629;48.808;8.820;2023-02-07T06:57:59;98960.91;;;-3.87;89.39
70968;BME280;58629;48.808;8.820;2023-02-07T07:00:25;98964.00;;;-3.90;88.77
70968;BME280;58629;48.808;8.820;2023-02-07T07:02:50;98967.16;;;-3.98;88.88
70968;BME280;58629;48.808;8.820;2023-02-07T07:05:16;98969.59;;;-4.16;88.87
70968;BME280;58629;48.808;8.820;2023-02-07T07:07:42;98974.34;;;-4.44;89.51
70968;BME280;58629;48.808;8.820;2023-02-07T07:10:08;98970.03;;;-4.68;90.54
70968;BME280;58629;48.808;8.820;2023-02-07T07:12:34;98974.97;;;-4.92;92.14
70968;BME280;58629;48.808;8.820;2023-02-07T07:14:59;98979.38;;;-4.97;93.24
70968;BME280;58629;48.808;8.820;2023-02-07T07:17:24;98988.16;;;-4.88;94.00
70968;BME280;58629;48.808;8.820;2023-02-07T07:19:50;98990.75;;;-4.83;93.75
70968;BME280;58629;48.808;8.820;2023-02-07T07:22:15;98987.81;;;-4.57;94.03
70968;BME280;58629;48.808;8.820;2023-02-07T07:24:41;98994.25;;;-4.44;93.14
70968;BME280;58629;48.808;8.820;2023-02-07T07:27:06;98981.53;;;-4.30;93.19
70968;BME280;58629;48.808;8.820;2023-02-07T07:29:31;98991.13;;;-4.41;92.05
70968;BME280;58629;48.808;8.820;2023-02-07T07:31:57;98997.38;;;-4.42;92.67
70968;BME280;58629;48.808;8.820;2023-02-07T07:34:22;98999.72;;;-4.51;91.31
70968;BME280;58629;48.808;8.820;2023-02-07T07:36:47;98997.91;;;-4.50;92.15
70968;BME280;58629;48.808;8.820;2023-02-07T07:39:13;98992.97;;;-4.47;92.51
70968;BME280;58629;48.808;8.820;2023-02-07T07:41:38;99002.53;;;-4.42;92.21
70968;BME280;58629;48.808;8.820;2023-02-07T07:44:04;98999.13;;;-4.32;92.17
70968;BME280;58629;48.808;8.820;2023-02-07T07:46:29;98997.53;;;-4.23;92.79
70968;BME280;58629;48.808;8.820;2023-02-07T07:48:54;98998.06;;;-4.21;92.53
70968;BME280;58629;48.808;8.820;2023-02-07T07:51:20;98992.09;;;-4.17;92.80
70968;BME280;58629;48.808;8.820;2023-02-07T07:53:45;98999.06;;;-4.12;92.90
70968;BME280;58629;48.808;8.820;2023-02-07T07:56:10;98996.72;;;-4.09;92.33
70968;BME280;58629;48.808;8.820;2023-02-07T07:58:36;98993.34;;;-4.09;92.93
70968;BME280;58629;48.808;8.820;2023-02-07T08:01:01;98994.91;;;-4.08;93.06
70968;BME280;58629;48.808;8.820;2023-02-07T08:03:26;98998.75;;;-4.01;93.35
70968;BME280;58629;48.808;8.820;2023-02-07T08:05:52;98989.09;;;-3.85;93.51
70968;BME280;58629;48.808;8.820;2023-02-07T08:08:17;98985.66;;;-3.76;92.79
70968;BME280;58629;48.808;8.820;2023-02-07T08:10:44;98990.28;;;-3.63;91.20
70968;BME280;58629;48.808;8.820;2023-02-07T08:13:09;98989.69;;;-3.55;90.82
70968;BME280;58629;48.808;8.820;2023-02-07T08:15:35;98995.06;;;-3.46;90.06
70968;BME280;58629;48.808;8.820;2023-02-07T08:18:00;98995.22;;;-3.32;89.94
70968;BME280;58629;48.808;8.820;2023-02-07T08:20:25;98998.50;;;-3.22;89.45
70968;BME280;58629;48.808;8.820;2023-02-07T08:22:51;99002.13;;;-3.18;88.89
70968;BME280;58629;48.808;8.820;2023-02-07T08:25:17;99020.25;;;-3.18;86.97
70968;BME280;58629;48.808;8.820;2023-02-07T08:27:42;99020.19;;;-3.13;86.86
70968;BME280;58629;48.808;8.820;2023-02-07T08:30:09;99021.69;;;-3.02;86.85
70968;BME280;58629;48.808;8.820;2023-02-07T08:32:35;99019.31;;;-2.98;84.72
70968;BME280;58629;48.808;8.820;2023-02-07T08:35:00;99022.63;;;-2.93;85.81
70968;BME280;58629;48.808;8.820;2023-02-07T08:37:25;99033.78;;;-2.92;84.37
70968;BME280;58629;48.808;8.820;2023-02-07T08:39:50;99039.97;;;-2.88;84.05
70968;BME280;58629;48.808;8.820;2023-02-07T08:42:21;99045.94;;;-2.88;84.53
70968;BME280;58629;48.808;8.820;2023-02-07T08:44:47;99048.69;;;-2.79;83.80
70968;BME280;58629;48.808;8.820;2023-02-07T08:47:14;99053.84;;;-2.74;83.05
70968;BME280;58629;48.808;8.820;2023-02-07T08:49:39;99058.75;;;-2.73;83.00
70968;BME280;58629;48.808;8.820;2023-02-07T08:52:05;99060.47;;;-2.63;82.69
70968;BME280;58629;48.808;8.820;2023-02-07T08:54:31;99056.50;;;-2.55;81.98
70968;BME280;58629;48.808;8.820;2023-02-07T08:56:56;99059.25;;;-2.42;83.83
70968;BME280;58629;48.808;8.820;2023-02-07T08:59:22;99068.75;;;-2.32;83.20
70968;BME280;58629;48.808;8.820;2023-02-07T09:01:47;99056.00;;;-2.29;81.39
70968;BME280;58629;48.808;8.820;2023-02-07T09:04:12;99051.50;;;-2.18;82.26
70968;BME280;58629;48.808;8.820;2023-02-07T09:06:38;99052.69;;;-2.11;82.42
70968;BME280;58629;48.808;8.820;2023-02-07T09:09:04;99035.13;;;-1.95;81.14
70968;BME280;58629;48.808;8.820;2023-02-07T09:11:29;99023.84;;;-1.86;81.91
70968;BME280;58629;48.808;8.820;2023-02-07T09:13:55;99024.00;;;-1.77;81.59
70968;BME280;58629;48.808;8.820;2023-02-07T09:16:20;99023.28;;;-1.83;80.17
70968;BME280;58629;48.808;8.820;2023-02-07T09:18:47;99027.91;;;-1.80;80.56
70968;BME280;58629;48.808;8.820;2023-02-07T09:21:13;99033.09;;;-1.98;78.49
70968;BME280;58629;48.808;8.820;2023-02-07T09:23:38;99033.44;;;-1.86;80.90
70968;BME280;58629;48.808;8.820;2023-02-07T09:26:05;99034.28;;;-1.91;77.94
70968;BME280;58629;48.808;8.820;2023-02-07T09:28:32;99022.13;;;-1.95;79.83
70968;BME280;58629;48.808;8.820;2023-02-07T09:30:57;99026.34;;;-1.99;79.24
70968;BME280;58629;48.808;8.820;2023-02-07T09:33:23;99019.81;;;-1.97;79.78
70968;BME280;58629;48.808;8.820;2023-02-07T09:35:49;99028.69;;;-1.79;81.10
70968;BME280;58629;48.808;8.820;2023-02-07T09:38:18;99029.59;;;-1.89;78.42
70968;BME280;58629;48.808;8.820;2023-02-07T09:40:45;99043.56;;;-1.85;79.50
70968;BME280;58629;48.808;8.820;2023-02-07T09:46:41;99053.53;;;-1.73;78.30
70968;BME280;58629;48.808;8.820;2023-02-07T09:49:09;99054.41;;;-1.59;78.27
70968;BME280;58629;48.808;8.820;2023-02-07T09:51:40;99057.25;;;-1.60;78.15
70968;BME280;58629;48.808;8.820;2023-02-07T09:54:17;99059.09;;;-1.61;78.06
70968;BME280;58629;48.808;8.820;2023-02-07T09:56:46;99063.94;;;-1.54;78.39
70968;BME280;58629;48.808;8.820;2023-02-07T09:59:35;99058.47;;;-1.53;76.46
70968;BME280;58629;48.808;8.820;2023-02-07T10:02:04;99062.81;;;-1.48;77.33
70968;BME280;58629;48.808;8.820;2023-02-07T10:04:38;99070.59;;;-1.48;75.60
70968;BME280;58629;48.808;8.820;2023-02-07T10:07:06;99064.66;;;-1.49;75.95
70968;BME280;58629;48.808;8.820;2023-02-07T10:09:37;99058.75;;;-1.36;76.62
70968;BME280;58629;48.808;8.820;2023-02-07T10:22:32;99058.47;;;-0.97;74.19
70968;BME280;58629;48.808;8.820;2023-02-07T10:25:17;99059.06;;;-0.87;75.06
70968;BME280;58629;48.808;8.820;2023-02-07T10:28:01;99062.06;;;-0.79;74.73
70968;BME280;58629;48.808;8.820;2023-02-07T10:30:36;99061.09;;;-0.83;73.64
70968;BME280;58629;48.808;8.820;2023-02-07T10:33:14;99064.78;;;-0.71;74.53
70968;BME280;58629;48.808;8.820;2023-02-07T10:35:43;99061.69;;;-0.73;73.00
70968;BME280;58629;48.808;8.820;2023-02-07T10:38:37;99064.59;;;-0.61;72.55
70968;BME280;58629;48.808;8.820;2023-02-07T10:41:14;99066.25;;;-0.51;73.35
70968;BME280;58629;48.808;8.820;2023-02-07T10:43:42;99066.47;;;-0.48;74.71
70968;BME280;58629;48.808;8.820;2023-02-07T10:46:11;99062.50;;;-0.45;73.42
70968;BME280;58629;48.808;8.820;2023-02-07T10:48:38;99065.22;;;-0.50;72.22
70968;BME280;58629;48.808;8.820;2023-02-07T10:51:18;99057.44;;;-0.37;72.55
70968;BME280;58629;48.808;8.820;2023-02-07T10:53:49;99064.88;;;-0.30;72.55
70968;BME280;58629;48.808;8.820;2023-02-07T10:56:23;99065.34;;;-0.28;72.26
70968;BME280;58629;48.808;8.820;2023-02-07T10:58:50;99061.31;;;-0.21;72.18
70968;BME280;58629;48.808;8.820;2023-02-07T11:01:18;99068.03;;;-0.20;71.59
70968;BME280;58629;48.808;8.820;2023-02-07T11:03:44;99071.91;;;-0.04;73.50
70968;BME280;58629;48.808;8.820;2023-02-07T11:06:13;99064.28;;;-0.14;71.42
70968;BME280;58629;48.808;8.820;2023-02-07T11:08:39;99068.16;;;-0.11;72.42
70968;BME280;58629;48.808;8.820;2023-02-07T11:13:50;99059.66;;;0.11;70.40
70968;BME280;58629;48.808;8.820;2023-02-07T11:16:17;99060.81;;;0.05;70.57
70968;BME280;58629;48.808;8.820;2023-02-07T11:19:03;99064.75;;;0.02;69.63
70968;BME280;58629;48.808;8.820;2023-02-07T11:21:38;99065.72;;;0.06;70.29
70968;BME280;58629;48.808;8.820;2023-02-07T11:24:07;99064.78;;;0.16;71.03
70968;BME280;58629;48.808;8.820;2023-02-07T11:26:47;99063.69;;;0.17;68.94
70968;BME280;58629;48.808;8.820;2023-02-07T11:29:18;99063.19;;;0.28;70.25
70968;BME280;58629;48.808;8.820;2023-02-07T11:31:45;99055.47;;;0.37;69.94
70968;BME280;58629;48.808;8.820;2023-02-07T11:37:21;99050.44;;;0.40;69.06
70968;BME280;58629;48.808;8.820;2023-02-07T11:39:49;99047.63;;;0.50;68.73
70968;BME280;58629;48.808;8.820;2023-02-07T11:42:20;99054.44;;;0.60;70.34
70968;BME280;58629;48.808;8.820;2023-02-07T11:44:47;99052.47;;;0.79;70.19
70968;BME280;58629;48.808;8.820;2023-02-07T11:47:16;99046.13;;;0.94;69.91
70968;BME280;58629;48.808;8.820;2023-02-07T11:49:49;99052.91;;;0.95;67.00
70968;BME280;58629;48.808;8.820;2023-02-07T11:52:17;99045.66;;;1.14;68.54
70968;BME280;58629;48.808;8.820;2023-02-07T11:54:49;99044.28;;;1.16;67.79
70968;BME280;58629;48.808;8.820;2023-02-07T11:57:16;99047.72;;;1.25;67.92
70968;BME280;58629;48.808;8.820;2023-02-07T12:00:00;99049.81;;;1.45;68.27
70968;BME280;58629;48.808;8.820;2023-02-07T12:02:28;99044.59;;;1.45;66.40
70968;BME280;58629;48.808;8.820;2023-02-07T12:04:54;99038.31;;;1.46;67.56
70968;BME280;58629;48.808;8.820;2023-02-07T12:07:25;99049.03;;;1.45;66.02
70968;BME280;58629;48.808;8.820;2023-02-07T12:09:55;99054.38;;;1.62;66.86
70968;BME280;58629;48.808;8.820;2023-02-07T12:12:35;99046.75;;;1.74;68.01
70968;BME280;58629;48.808;8.820;2023-02-07T12:15:14;99043.56;;;1.86;66.89
70968;BME280;58629;48.808;8.820;2023-02-07T12:17:50;99038.22;;;1.99;67.22
70968;BME280;58629;48.808;8.820;2023-02-07T12:20:24;99039.25;;;1.90;66.03
70968;BME280;58629;48.808;8.820;2023-02-07T12:22:59;99035.78;;;2.11;66.40
70968;BME280;58629;48.808;8.820;2023-02-07T12:25:29;99033.63;;;2.13;66.27
70968;BME280;58629;48.808;8.820;2023-02-07T12:28:00;99032.38;;;1.94;64.09
70968;BME280;58629;48.808;8.820;2023-02-07T12:30:33;99023.44;;;1.95;65.33
70968;BME280;58629;48.808;8.820;2023-02-07T12:33:22;99024.44;;;2.16;65.95
70968;BME280;58629;48.808;8.820;2023-02-07T12:38:53;99020.44;;;2.44;63.20
70968;BME280;58629;48.808;8.820;2023-02-07T12:41:43;99019.22;;;2.58;65.50
70968;BME280;58629;48.808;8.820;2023-02-07T12:44:30;99012.00;;;2.64;63.88
70968;BME280;58629;48.808;8.820;2023-02-07T12:47:13;99010.00;;;2.78;61.78
70968;BME280;58629;48.808;8.820;2023-02-07T12:49:49;99002.94;;;2.79;62.96
70968;BME280;58629;48.808;8.820;2023-02-07T12:55:14;99004.47;;;2.71;61.38
70968;BME280;58629;48.808;8.820;2023-02-07T12:58:04;98992.13;;;2.89;62.72
70968;BME280;58629;48.808;8.820;2023-02-07T13:06:39;98985.34;;;2.96;60.44
70968;BME280;58629;48.808;8.820;2023-02-07T13:09:35;98981.63;;;3.06;60.58
70968;BME280;58629;48.808;8.820;2023-02-07T13:12:16;98982.03;;;3.25;60.31
70968;BME280;58629;48.808;8.820;2023-02-07T13:17:39;98981.47;;;3.11;59.30
70968;BME280;58629;48.808;8.820;2023-02-07T13:20:41;98986.66;;;3.19;59.54
70968;BME280;58629;48.808;8.820;2023-02-07T13:23:20;98982.66;;;3.30;62.25
70968;BME280;58629;48.808;8.820;2023-02-07T13:25:49;98985.41;;;3.34;62.36
70968;BME280;58629;48.808;8.820;2023-02-07T13:28:24;98985.41;;;3.34;58.65
70968;BME280;58629;48.808;8.820;2023-02-07T13:30:52;98983.22;;;3.44;62.03
70968;BME280;58629;48.808;8.820;2023-02-07T13:33:48;98984.34;;;3.26;62.16
70968;BME280;58629;48.808;8.820;2023-02-07T13:36:20;98978.81;;;3.28;61.02
70968;BME280;58629;48.808;8.820;2023-02-07T13:39:13;98986.34;;;3.29;61.25
70968;BME280;58629;48.808;8.820;2023-02-07T13:44:46;98982.34;;;3.32;62.59
70968;BME280;58629;48.808;8.820;2023-02-07T13:47:44;98983.38;;;3.39;61.78
70968;BME280;58629;48.808;8.820;2023-02-07T13:50:22;98981.69;;;3.35;61.69
70968;BME280;58629;48.808;8.820;2023-02-07T13:55:39;98988.53;;;3.19;59.73
70968;BME280;58629;48.808;8.820;2023-02-07T14:01:19;98992.22;;;3.18;61.48
70968;BME280;58629;48.808;8.820;2023-02-07T14:04:01;98996.22;;;3.15;61.27
70968;BME280;58629;48.808;8.820;2023-02-07T14:06:30;98994.38;;;3.16;62.71
70968;BME280;58629;48.808;8.820;2023-02-07T14:11:39;98991.38;;;2.97;62.38
70968;BME280;58629;48.808;8.820;2023-02-07T14:14:13;98992.59;;;2.82;61.45
70968;BME280;58629;48.808;8.820;2023-02-07T14:16:49;98995.69;;;2.93;62.96
70968;BME280;58629;48.808;8.820;2023-02-07T14:27:31;98977.81;;;3.41;63.03
70968;BME280;58629;48.808;8.820;2023-02-07T14:32:38;98976.72;;;3.04;59.50
70968;BME280;58629;48.808;8.820;2023-02-07T14:37:52;98978.22;;;3.14;61.04
70968;BME280;58629;48.808;8.820;2023-02-07T14:40:22;98969.06;;;2.91;59.81
70968;BME280;58629;48.808;8.820;2023-02-07T14:42:58;98970.28;;;2.85;59.79
70968;BME280;58629;48.808;8.820;2023-02-07T14:45:28;98982.50;;;3.27;66.71
70968;BME280;58629;48.808;8.820;2023-02-07T14:47:54;98976.53;;;3.18;60.26
70968;BME280;58629;48.808;8.820;2023-02-07T14:50:24;98976.25;;;3.02;59.70